createdAt,value
2018-11-21T00:02:13.386Z,18.11
2018-11-21T00:05:01.342Z,18.10
2018-11-21T00:07:33.941Z,18.08
2018-11-21T00:10:01.304Z,18.10
2018-11-21T00:12:28.534Z,18.10
2018-11-21T00:14:55.608Z,18.13
2018-11-21T00:17:22.664Z,18.13
2018-11-21T00:19:49.787Z,18.09
2018-11-21T00:22:16.936Z,18.04
2018-11-21T00:24:44.012Z,17.98
2018-11-21T00:27:11.066Z,17.91
2018-11-21T00:29:38.214Z,17.87
2018-11-21T00:32:08.873Z,17.85
2018-11-21T00:34:36.092Z,17.82
2018-11-21T00:37:03.210Z,17.83
2018-11-21T00:39:30.304Z,17.83
2018-11-21T00:41:57.431Z,17.81
2018-11-21T00:44:24.521Z,17.85
2018-11-21T00:46:51.635Z,17.85
2018-11-21T00:49:18.734Z,17.84
2018-11-21T00:51:45.872Z,17.85
2018-11-21T00:54:13.006Z,17.82
2018-11-21T00:56:40.293Z,17.81
2018-11-21T00:59:07.389Z,17.75
2018-11-21T01:01:34.486Z,17.75
2018-11-21T01:04:01.699Z,17.76
2018-11-21T01:06:28.744Z,17.77
2018-11-21T01:08:55.799Z,17.77
2018-11-21T01:11:22.933Z,17.76
2018-11-21T01:13:50.033Z,17.77
2018-11-21T01:16:17.110Z,17.76
2018-11-21T01:18:44.205Z,17.74
2018-11-21T01:21:11.279Z,17.73
2018-11-21T01:23:38.373Z,17.75
2018-11-21T01:26:05.521Z,17.73
2018-11-21T01:28:32.669Z,17.75
2018-11-21T01:30:59.807Z,17.74
2018-11-21T01:33:26.886Z,17.75
2018-11-21T01:35:53.974Z,17.72
2018-11-21T01:38:21.578Z,17.71
2018-11-21T01:40:48.678Z,17.70
2018-11-21T01:43:15.851Z,17.73
2018-11-21T01:45:42.912Z,17.74
2018-11-21T01:48:10.229Z,17.77
2018-11-21T01:50:37.271Z,17.78
2018-11-21T01:53:04.349Z,17.77
2018-11-21T01:55:31.501Z,17.74
2018-11-21T01:57:58.549Z,17.73
2018-11-21T02:00:25.786Z,17.70
2018-11-21T02:02:52.839Z,17.73
2018-11-21T02:05:19.902Z,17.71
2018-11-21T02:07:47.020Z,17.68
2018-11-21T02:10:14.121Z,17.68
2018-11-21T02:12:41.193Z,17.69
2018-11-21T02:15:08.259Z,17.70
2018-11-21T02:17:35.397Z,17.70
2018-11-21T02:20:02.486Z,17.69
2018-11-21T02:22:29.575Z,17.68
2018-11-21T02:24:56.646Z,17.64
2018-11-21T02:27:23.749Z,17.67
2018-11-21T02:29:50.850Z,17.70
2018-11-21T02:32:17.968Z,17.73
2018-11-21T02:34:45.062Z,17.72
2018-11-21T02:37:12.161Z,17.72
2018-11-21T02:39:39.346Z,17.74
2018-11-21T02:42:06.432Z,17.78
2018-11-21T02:44:33.535Z,17.76
2018-11-21T02:47:00.659Z,17.76
2018-11-21T02:49:27.799Z,17.76
2018-11-21T02:51:54.883Z,17.77
2018-11-21T02:54:22.046Z,17.75
2018-11-21T02:57:24.399Z,17.75
2018-11-21T02:59:53.619Z,17.74
2018-11-21T03:02:20.730Z,17.75
2018-11-21T03:04:47.849Z,17.74
2018-11-21T03:07:14.946Z,17.70
2018-11-21T03:09:41.995Z,17.72
2018-11-21T03:12:09.407Z,17.72
2018-11-21T03:14:36.493Z,17.70
2018-11-21T03:17:04.025Z,17.68
2018-11-21T03:19:31.170Z,17.71
2018-11-21T03:21:58.331Z,17.70
2018-11-21T03:24:25.480Z,17.69
2018-11-21T03:26:52.934Z,17.71
2018-11-21T03:29:20.151Z,17.71
2018-11-21T03:31:47.206Z,17.72
2018-11-21T03:34:14.343Z,17.68
2018-11-21T03:36:48.126Z,17.67
2018-11-21T03:39:15.532Z,17.73
2018-11-21T03:41:42.703Z,17.74
2018-11-21T03:44:09.824Z,17.72
2018-11-21T03:46:36.946Z,17.69
2018-11-21T03:49:04.193Z,17.65
2018-11-21T03:51:31.301Z,17.70
2018-11-21T03:53:58.446Z,17.70
2018-11-21T03:56:25.501Z,17.70
2018-11-21T03:58:52.721Z,17.70
2018-11-21T04:01:19.818Z,17.67
2018-11-21T04:03:46.889Z,17.61
2018-11-21T04:06:13.986Z,17.59
2018-11-21T04:08:42.725Z,17.61
2018-11-21T04:11:08.265Z,17.65
2018-11-21T04:13:35.343Z,17.65
2018-11-21T04:16:02.503Z,17.68
2018-11-21T04:18:29.682Z,17.70
2018-11-21T04:20:56.756Z,17.74
2018-11-21T04:23:23.835Z,17.75
2018-11-21T04:25:50.926Z,17.75
2018-11-21T04:28:18.021Z,17.74
2018-11-21T04:30:45.100Z,17.74
2018-11-21T04:33:12.187Z,17.76
2018-11-21T04:35:39.293Z,17.77
2018-11-21T04:40:33.570Z,17.79
2018-11-21T04:43:00.679Z,17.81
2018-11-21T04:45:27.739Z,17.81
2018-11-21T04:47:55.959Z,17.85
2018-11-21T04:50:21.952Z,17.87
2018-11-21T04:52:49.074Z,17.89
2018-11-21T04:55:16.189Z,17.87
2018-11-21T04:57:43.334Z,17.87
2018-11-21T05:00:10.783Z,17.86
2018-11-21T05:02:37.944Z,17.87
2018-11-21T05:05:07.015Z,17.88
2018-11-21T05:07:34.119Z,17.88
2018-11-21T05:10:01.271Z,17.88
2018-11-21T05:12:28.368Z,17.86
2018-11-21T05:14:55.478Z,17.84
2018-11-21T05:17:22.606Z,17.82
2018-11-21T05:19:49.730Z,17.83
2018-11-21T05:22:16.937Z,17.84
2018-11-21T05:24:44.067Z,17.84
2018-11-21T05:27:11.123Z,17.84
2018-11-21T05:29:38.229Z,17.84
2018-11-21T05:32:05.372Z,17.84
2018-11-21T05:34:33.072Z,17.86
2018-11-21T05:37:00.349Z,17.92
2018-11-21T05:39:28.293Z,17.92
2018-11-21T05:41:56.766Z,17.90
2018-11-21T05:44:27.003Z,17.89
2018-11-21T05:46:53.734Z,17.86
2018-11-21T05:49:18.386Z,17.90
2018-11-21T05:51:45.542Z,17.85
2018-11-21T05:54:12.602Z,17.86
2018-11-21T05:56:39.866Z,17.86
2018-11-21T05:59:06.938Z,17.84
2018-11-21T06:01:34.046Z,17.85
2018-11-21T06:04:01.304Z,17.86
2018-11-21T06:06:28.392Z,17.85
2018-11-21T06:08:55.487Z,17.84
2018-11-21T06:11:22.529Z,17.85
2018-11-21T06:13:49.620Z,17.84
2018-11-21T06:16:16.730Z,17.83
2018-11-21T06:18:43.800Z,17.80
2018-11-21T06:21:10.997Z,17.79
2018-11-21T06:23:38.084Z,17.75
2018-11-21T06:26:05.399Z,17.75
2018-11-21T06:28:32.517Z,17.75
2018-11-21T06:30:59.636Z,17.75
2018-11-21T06:33:26.781Z,17.77
2018-11-21T06:35:53.881Z,17.80
2018-11-21T06:38:21.047Z,17.81
2018-11-21T06:40:48.249Z,17.79
2018-11-21T06:43:15.344Z,17.80
2018-11-21T06:45:42.393Z,17.82
2018-11-21T06:48:09.627Z,17.80
2018-11-21T06:50:36.773Z,17.82
2018-11-21T06:53:03.983Z,17.81
2018-11-21T06:55:31.027Z,17.85
2018-11-21T06:57:58.097Z,17.87
2018-11-21T07:00:25.248Z,17.87
2018-11-21T07:02:52.338Z,17.84
2018-11-21T07:05:19.517Z,17.82
2018-11-21T07:07:46.569Z,17.84
2018-11-21T07:10:14.628Z,17.88
2018-11-21T07:12:42.384Z,17.90
2018-11-21T07:15:09.500Z,17.91
2018-11-21T07:17:36.976Z,17.91
2018-11-21T07:20:06.076Z,17.93
2018-11-21T07:22:33.165Z,17.97
2018-11-21T07:25:00.265Z,17.99
2018-11-21T07:27:27.505Z,17.96
2018-11-21T07:29:54.589Z,17.92
2018-11-21T07:32:28.961Z,17.91
2018-11-21T07:34:56.526Z,17.89
2018-11-21T07:37:23.585Z,17.88
2018-11-21T07:39:50.666Z,17.88
2018-11-21T07:42:17.744Z,17.88
2018-11-21T07:44:44.865Z,17.85
2018-11-21T07:47:12.181Z,17.85
2018-11-21T07:49:39.245Z,17.85
2018-11-21T07:52:06.324Z,17.86
2018-11-21T07:54:33.442Z,17.89
2018-11-21T07:57:27.926Z,17.87
2018-11-21T08:00:46.434Z,17.86
2018-11-21T08:03:14.816Z,17.90
2018-11-21T08:05:44.467Z,17.93
2018-11-21T08:08:35.499Z,17.93
2018-11-21T08:11:20.537Z,17.98
2018-11-21T08:14:16.644Z,17.98
2018-11-21T08:17:06.395Z,17.98
2018-11-21T08:19:56.065Z,17.94
2018-11-21T08:22:57.834Z,17.93
2018-11-21T08:25:53.390Z,17.96
2018-11-21T08:28:30.444Z,17.93
2018-11-21T08:30:57.594Z,17.94
2018-11-21T08:33:24.658Z,17.93
2018-11-21T08:35:51.746Z,17.95
2018-11-21T08:38:18.872Z,17.96
2018-11-21T08:40:45.975Z,17.96
2018-11-21T08:43:13.129Z,17.98
2018-11-21T08:45:40.228Z,17.97
2018-11-21T08:48:07.532Z,17.96
2018-11-21T08:50:34.715Z,17.96
2018-11-21T08:53:02.471Z,17.98
2018-11-21T08:55:29.557Z,17.96
2018-11-21T08:57:56.682Z,17.95
2018-11-21T09:00:24.057Z,17.98
2018-11-21T09:02:51.223Z,17.95
2018-11-21T09:05:18.284Z,17.94
2018-11-21T09:07:45.384Z,17.95
2018-11-21T09:10:13.097Z,17.95
2018-11-21T09:12:40.479Z,17.96
2018-11-21T09:15:09.623Z,17.95
2018-11-21T09:17:36.693Z,17.94
2018-11-21T09:20:04.293Z,17.95
2018-11-21T09:22:31.546Z,17.95
2018-11-21T09:24:58.679Z,17.93
2018-11-21T09:27:25.766Z,17.93
2018-11-21T09:29:52.877Z,17.92
2018-11-21T09:32:19.969Z,17.91
2018-11-21T09:34:47.086Z,17.92
2018-11-21T09:37:14.179Z,17.92
2018-11-21T09:39:41.374Z,17.91
2018-11-21T09:42:08.462Z,17.88
2018-11-21T09:44:35.538Z,17.88
2018-11-21T09:47:02.698Z,17.90
2018-11-21T09:49:29.786Z,17.91
2018-11-21T09:51:56.835Z,17.91
2018-11-21T09:54:24.027Z,17.95
2018-11-21T09:56:51.105Z,17.98
2018-11-21T09:59:18.207Z,17.99
2018-11-21T10:02:23.149Z,17.98
2018-11-21T10:04:49.267Z,17.95
2018-11-21T10:07:16.300Z,17.94
2018-11-21T10:09:45.148Z,17.98
2018-11-21T10:12:12.279Z,18.02
2018-11-21T10:14:39.341Z,18.03
2018-11-21T10:17:06.437Z,18.04
2018-11-21T10:19:33.645Z,18.05
2018-11-21T10:22:00.891Z,18.06
2018-11-21T10:24:27.959Z,18.04
2018-11-21T10:26:55.037Z,18.03
2018-11-21T10:29:22.160Z,18.04
2018-11-21T10:31:49.258Z,18.05
2018-11-21T10:34:16.551Z,18.06
2018-11-21T10:36:43.606Z,18.04
2018-11-21T10:39:10.826Z,18.01
2018-11-21T10:41:37.980Z,18.01
2018-11-21T10:44:05.272Z,18.00
2018-11-21T10:46:32.437Z,17.98
2018-11-21T10:48:59.551Z,18.00
2018-11-21T10:51:26.720Z,18.01
2018-11-21T10:53:53.860Z,18.01
2018-11-21T10:56:20.974Z,18.00
2018-11-21T10:58:48.183Z,18.01
2018-11-21T11:01:46.903Z,18.04
2018-11-21T11:04:23.017Z,18.06
2018-11-21T11:07:12.625Z,18.04
2018-11-21T11:10:00.186Z,18.06
2018-11-21T11:12:44.986Z,18.06
2018-11-21T11:15:31.392Z,18.12
2018-11-21T11:18:36.069Z,18.13
2018-11-21T11:21:40.840Z,18.13
2018-11-21T11:24:42.628Z,18.12
2018-11-21T11:27:41.478Z,18.09
2018-11-21T11:30:26.769Z,18.11
2018-11-21T11:33:14.496Z,18.11
2018-11-21T11:35:59.815Z,18.12
2018-11-21T11:39:04.323Z,18.15
2018-11-21T11:41:53.416Z,18.13
2018-11-21T11:44:52.398Z,18.14
2018-11-21T11:47:38.998Z,18.18
2018-11-21T11:50:25.168Z,18.22
2018-11-21T11:53:11.316Z,18.22
2018-11-21T11:55:56.825Z,18.25
2018-11-21T11:58:42.855Z,18.30
2018-11-21T12:01:39.159Z,18.30
2018-11-21T12:04:27.163Z,18.27
2018-11-21T12:07:32.109Z,18.30
2018-11-21T12:10:21.937Z,18.37
2018-11-21T12:13:23.738Z,18.42
2018-11-21T12:16:28.324Z,18.47
2018-11-21T12:19:15.018Z,18.49
2018-11-21T12:22:16.767Z,18.52
2018-11-21T12:25:09.331Z,18.59
2018-11-21T12:27:41.346Z,18.62
2018-11-21T12:30:31.372Z,18.62
2018-11-21T12:33:16.488Z,18.64
2018-11-21T12:36:01.770Z,18.70
2018-11-21T12:38:48.415Z,18.69
2018-11-21T12:41:33.803Z,18.74
2018-11-21T12:44:20.431Z,18.77
2018-11-21T12:47:15.691Z,18.80
2018-11-21T12:50:02.482Z,18.81
2018-11-21T12:52:58.036Z,18.84
2018-11-21T12:55:47.280Z,18.83
2018-11-21T12:58:36.643Z,18.85
2018-11-21T13:01:24.731Z,18.82
2018-11-21T13:04:10.140Z,18.81
2018-11-21T13:07:05.331Z,18.81
2018-11-21T13:09:56.710Z,18.78
2018-11-21T13:12:50.386Z,18.79
2018-11-21T13:15:35.677Z,18.72
2018-11-21T13:18:25.190Z,18.66
2018-11-21T13:21:14.442Z,18.66
2018-11-21T13:23:59.742Z,18.60
2018-11-21T13:26:44.702Z,18.58
2018-11-21T13:29:37.073Z,18.58
2018-11-21T13:32:35.819Z,18.54
2018-11-21T13:35:21.135Z,18.49
2018-11-21T13:38:06.475Z,18.46
2018-11-21T13:40:53.140Z,18.44
2018-11-21T13:43:30.538Z,18.45
2018-11-21T13:46:15.770Z,18.44
2018-11-21T13:49:11.219Z,18.42
2018-11-21T13:51:56.431Z,18.39
2018-11-21T13:54:46.329Z,18.36
2018-11-21T13:57:13.442Z,18.33
2018-11-21T13:59:40.629Z,18.32
2018-11-21T14:02:07.888Z,18.30
2018-11-21T14:04:35.148Z,18.29
2018-11-21T14:07:02.370Z,18.27
2018-11-21T14:09:29.464Z,18.29
2018-11-21T14:11:56.533Z,18.27
2018-11-21T14:14:23.624Z,18.25
2018-11-21T14:16:50.723Z,18.25
2018-11-21T14:19:17.937Z,18.24
2018-11-21T14:21:44.981Z,18.23
2018-11-21T14:24:12.100Z,18.19
2018-11-21T14:26:39.313Z,18.16
2018-11-21T14:29:06.412Z,18.14
2018-11-21T14:31:33.507Z,18.16
2018-11-21T14:34:00.686Z,18.13
2018-11-21T14:36:27.991Z,18.11
2018-11-21T14:38:55.090Z,18.09
2018-11-21T14:41:22.252Z,18.08
2018-11-21T14:43:49.388Z,18.12
2018-11-21T14:46:16.557Z,18.19
2018-11-21T14:48:43.971Z,18.19
2018-11-21T14:51:14.290Z,18.19
2018-11-21T14:53:43.841Z,18.18
2018-11-21T14:56:12.262Z,18.18
2018-11-21T14:58:39.351Z,18.17
2018-11-21T15:01:06.742Z,18.15
2018-11-21T15:03:33.911Z,18.16
2018-11-21T15:06:02.378Z,18.14
2018-11-21T15:08:29.409Z,18.12
2018-11-21T15:10:56.706Z,18.10
2018-11-21T15:13:23.968Z,18.11
2018-11-21T15:15:54.278Z,18.14
2018-11-21T15:18:21.402Z,18.14
2018-11-21T15:20:51.094Z,18.11
2018-11-21T15:23:26.280Z,18.11
2018-11-21T15:25:53.786Z,18.12
2018-11-21T15:28:20.918Z,18.11
2018-11-21T15:30:48.013Z,18.10
2018-11-21T15:33:15.083Z,18.13
2018-11-21T15:35:42.301Z,18.12
2018-11-21T15:38:09.358Z,18.09
2018-11-21T15:40:36.420Z,18.10
2018-11-21T15:43:03.675Z,18.09
2018-11-21T15:45:30.793Z,18.08
2018-11-21T15:47:59.314Z,18.06
2018-11-21T15:50:27.009Z,18.06
2018-11-21T15:52:54.086Z,18.06
2018-11-21T15:55:21.256Z,18.05
2018-11-21T15:57:48.438Z,18.05
2018-11-21T16:00:17.834Z,18.04
2018-11-21T16:02:45.765Z,18.04
2018-11-21T16:05:13.202Z,18.02
2018-11-21T16:07:40.421Z,18.02
2018-11-21T16:10:10.109Z,18.01
2018-11-21T16:12:37.202Z,18.00
2018-11-21T16:15:07.192Z,17.99
2018-11-21T16:17:34.307Z,17.94
2018-11-21T16:20:01.421Z,17.91
2018-11-21T16:22:28.542Z,17.93
2018-11-21T16:24:55.697Z,17.91
2018-11-21T16:27:22.765Z,17.93
2018-11-21T16:29:49.967Z,17.92
2018-11-21T16:32:17.093Z,17.91
2018-11-21T16:34:44.171Z,17.89
2018-11-21T16:37:11.325Z,17.88
2018-11-21T16:39:38.485Z,17.89
2018-11-21T16:42:05.586Z,17.89
